Time;durP1;ratioP1;P1;durP2;ratioP2;P2;SDS_P1;SDS_P2;PMS_P1;PMS_P2;Temp;Humidity;BMP_temperature;BMP_pressure;BME280_temperature;BME280_humidity;BME280_pressure;Samples;Min_cycle;Max_cycle;Signal;HPM_P1;HPM_P2
2021/12/22 00:00:16;;;;;;;14.18;6.70;;;;;;;-3.46;87.68;100519.73;1637189;86;20958;-72
2021/12/22 00:02:48;;;;;;;11.75;6.80;;;;;;;-3.43;87.68;100519.80;1628604;87;21104;-72
2021/12/22 00:05:19;;;;;;;17.65;7.22;;;;;;;-3.39;87.74;100522.00;1656682;85;20985;-72
2021/12/22 00:07:45;;;;;;;11.80;6.87;;;;;;;-3.33;87.87;100522.55;1658694;85;20926;-72
2021/12/22 00:10:13;;;;;;;19.75;7.25;;;;;;;-3.27;87.79;100526.13;1653980;85;21075;-72
2021/12/22 00:12:39;;;;;;;16.70;7.30;;;;;;;-3.20;87.79;100527.09;1655807;85;21575;-72
2021/12/22 00:15:06;;;;;;;14.73;7.27;;;;;;;-3.13;87.88;100521.30;1654890;85;21065;-72
2021/12/22 00:17:33;;;;;;;10.53;6.33;;;;;;;-3.11;87.62;100529.84;1657643;85;20981;-72
2021/12/22 00:20:00;;;;;;;12.55;6.65;;;;;;;-3.19;87.41;100528.84;1661640;85;20935;-71
2021/12/22 00:22:26;;;;;;;17.60;9.08;;;;;;;-3.20;87.64;100527.09;1659867;85;21143;-72
2021/12/22 00:24:53;;;;;;;12.78;5.83;;;;;;;-3.23;87.54;100527.89;1665632;86;20883;-71
2021/12/22 00:27:19;;;;;;;16.90;6.27;;;;;;;-3.31;87.33;100528.56;1663935;84;20955;-71
2021/12/22 00:29:49;;;;;;;11.00;5.67;;;;;;;-3.37;87.34;100518.66;1668313;84;21033;-72
2021/12/22 00:32:16;;;;;;;9.63;5.80;;;;;;;-3.41;87.41;100524.95;1674368;84;20923;-72
2021/12/22 00:34:49;;;;;;;8.48;4.58;;;;;;;-3.42;87.50;100525.77;1677528;84;22049;-71
2021/12/22 00:37:18;;;;;;;9.25;6.70;;;;;;;-3.42;87.51;100519.38;1673342;85;21047;-72
2021/12/22 00:39:45;;;;;;;8.03;3.77;;;;;;;-3.42;87.57;100516.45;1634748;87;21069;-72
2021/12/22 00:42:13;;;;;;;4.90;2.92;;;;;;;-3.40;87.54;100521.14;1649693;85;21056;-72
2021/12/22 00:44:42;;;;;;;3.87;2.42;;;;;;;-3.40;87.55;100517.31;1674031;84;21544;-71
2021/12/22 00:47:09;;;;;;;3.62;2.35;;;;;;;-3.41;87.54;100515.60;1669822;84;22050;-71
2021/12/22 00:49:36;;;;;;;4.55;2.02;;;;;;;-3.45;87.45;100516.34;1672255;84;21575;-72
2021/12/22 00:52:04;;;;;;;5.55;2.65;;;;;;;-3.48;87.42;100526.50;1672387;85;20907;-72
2021/12/22 00:54:30;;;;;;;4.42;2.12;;;;;;;-3.54;87.32;100521.26;1674197;84;20981;-72
2021/12/22 00:57:03;;;;;;;7.50;2.70;;;;;;;-3.57;87.47;100527.57;1654596;85;21056;-71
2021/12/22 00:59:25;;;;;;;4.03;2.33;;;;;;;-3.54;87.60;100519.98;1673633;85;21977;-71
2021/12/22 01:01:52;;;;;;;5.83;3.02;;;;;;;-3.54;87.64;100531.47;1672942;84;20995;-71
2021/12/22 01:04:18;;;;;;;5.72;2.02;;;;;;;-3.53;87.57;100530.62;1672534;84;20895;-72
2021/12/22 01:06:46;;;;;;;5.12;2.08;;;;;;;-3.52;87.57;100530.23;1671530;85;21000;-72
2021/12/22 01:09:12;;;;;;;4.60;1.90;;;;;;;-3.50;87.56;100535.83;1672813;84;20966;-72
2021/12/22 01:11:39;;;;;;;2.45;1.37;;;;;;;-3.53;87.46;100537.43;1672335;84;21127;-72
2021/12/22 01:14:06;;;;;;;2.57;1.70;;;;;;;-3.55;87.25;100539.11;1671574;85;20973;-72
2021/12/22 01:16:33;;;;;;;2.20;1.32;;;;;;;-3.59;87.37;100538.16;1673811;84;21109;-72
2021/12/22 01:19:03;;;;;;;2.05;1.30;;;;;;;-3.58;87.42;100532.23;1675232;84;20969;-72
2021/12/22 01:21:38;;;;;;;4.22;1.30;;;;;;;-3.57;87.45;100536.93;1672454;84;21476;-72
2021/12/22 01:24:02;;;;;;;4.12;1.10;;;;;;;-3.57;87.43;100541.61;1671751;85;21067;-71
2021/12/22 01:26:30;;;;;;;3.35;1.60;;;;;;;-3.53;87.37;100545.95;1672301;85;20906;-72
2021/12/22 01:28:57;;;;;;;2.50;1.30;;;;;;;-3.52;87.45;100547.69;1673841;84;20879;-71
2021/12/22 01:31:24;;;;;;;4.67;1.57;;;;;;;-3.48;87.39;100541.81;1686726;83;21345;-72
2021/12/22 01:33:51;;;;;;;2.12;1.40;;;;;;;-3.49;87.31;100545.20;1685669;84;20961;-72
2021/12/22 01:36:18;;;;;;;4.22;2.02;;;;;;;-3.44;87.44;100541.08;1690489;84;21082;-72
2021/12/22 01:38:44;;;;;;;3.15;1.50;;;;;;;-3.41;87.42;100536.03;1690474;84;20981;-72
2021/12/22 01:41:11;;;;;;;2.08;1.30;;;;;;;-3.40;87.23;100543.27;1691436;84;20933;-70
2021/12/22 01:43:38;;;;;;;3.15;1.67;;;;;;;-3.39;87.10;100546.27;1688591;84;20879;-72
2021/12/22 01:46:32;;;;;;;2.30;1.30;;;;;;;-3.38;87.17;100541.20;1660055;84;21017;-72
2021/12/22 01:51:58;;;;;;;4.90;1.60;;;;;;;-3.30;87.34;100536.69;1634241;85;21466;-72
2021/12/22 01:55:04;;;;;;;6.33;2.00;;;;;;;-3.23;87.36;100542.36;1685045;84;21497;-72
2021/12/22 01:57:27;;;;;;;3.27;1.60;;;;;;;-3.24;87.21;100540.65;1688789;84;21643;-72
2021/12/22 01:59:53;;;;;;;5.50;1.60;;;;;;;-3.21;87.16;100544.55;1689819;84;22092;-69
2021/12/22 02:02:20;;;;;;;2.85;1.95;;;;;;;-3.23;86.85;100550.03;1685490;83;21084;-70
2021/12/22 02:04:47;;;;;;;3.60;1.92;;;;;;;-3.29;86.75;100547.34;1686158;84;21104;-69
2021/12/22 02:07:14;;;;;;;5.53;2.72;;;;;;;-3.29;86.95;100547.34;1689515;84;20990;-70
2021/12/22 02:12:17;;;;;;;7.28;3.37;;;;;;;-3.31;86.86;100546.44;1678017;84;20926;-69
2021/12/22 02:14:45;;;;;;;5.67;3.37;;;;;;;-3.35;86.79;100548.49;1692703;84;20999;-69
2021/12/22 02:17:12;;;;;;;11.18;3.62;;;;;;;-3.39;86.70;100544.59;1689989;84;20934;-69
2021/12/22 02:19:40;;;;;;;;;;;;;;;-3.45;86.63;100544.43;1690685;84;20958;-69
2021/12/22 02:22:10;;;;;;;6.95;3.20;;;;;;;-3.47;86.76;100549.94;1688366;84;20568;-70
2021/12/22 02:24:35;;;;;;;5.40;3.25;;;;;;;-3.50;86.79;100551.54;1686813;84;20954;-70
2021/12/22 02:27:13;;;;;;;9.73;5.13;;;;;;;-3.60;86.30;100550.06;1683467;84;21058;-69
2021/12/22 02:29:39;;;;;;;5.37;3.35;;;;;;;-3.75;86.07;100547.55;1684693;84;20938;-69
2021/12/22 02:32:03;;;;;;;9.80;4.15;;;;;;;-3.87;86.20;100545.16;1685944;84;21494;-70
2021/12/22 02:34:32;;;;;;;6.65;3.65;;;;;;;-3.92;86.26;100541.66;1690214;83;20966;-70
2021/12/22 02:37:02;;;;;;;9.93;4.00;;;;;;;-4.00;86.11;100541.87;1659384;84;20945;-69
2021/12/22 02:39:26;;;;;;;9.73;4.40;;;;;;;-4.05;86.37;100538.34;1690072;84;21937;-70
2021/12/22 02:41:53;;;;;;;6.03;3.22;;;;;;;-3.99;86.83;100543.59;1685230;84;21132;-69
2021/12/22 02:44:19;;;;;;;6.73;3.73;;;;;;;-3.92;86.94;100542.93;1693267;83;21686;-69
2021/12/22 02:46:46;;;;;;;8.53;4.37;;;;;;;-3.85;87.02;100546.06;1684436;83;21151;-69
2021/12/22 02:49:13;;;;;;;7.70;3.92;;;;;;;-3.78;87.00;100543.66;1690612;84;21033;-69
2021/12/22 02:51:40;;;;;;;7.20;3.98;;;;;;;-3.76;86.98;100542.01;1684677;83;21073;-69
2021/12/22 02:54:22;;;;;;;6.17;3.90;;;;;;;-3.76;86.80;100544.56;1681802;83;20981;-69
2021/12/22 02:59:37;;;;;;;6.35;4.20;;;;;;;-3.77;86.61;100542.84;1685350;83;20882;-69
2021/12/22 03:04:25;;;;;;;7.33;3.65;;;;;;;-3.91;86.39;100538.27;1687155;84;21158;-69
2021/12/22 03:06:55;;;;;;;6.80;3.55;;;;;;;-3.99;86.34;100533.38;1686886;84;20896;-69
2021/12/22 03:09:29;;;;;;;8.55;4.08;;;;;;;-4.06;86.36;100528.98;1685585;84;21086;-69
2021/12/22 03:11:59;;;;;;;7.10;3.98;;;;;;;-4.22;86.04;100532.82;1688928;84;21010;-69
2021/12/22 03:14:27;;;;;;;7.60;4.10;;;;;;;-4.40;85.89;100537.02;1691057;83;20965;-69
2021/12/22 03:16:55;;;;;;;6.75;3.98;;;;;;;-4.52;85.97;100536.70;1694082;83;21053;-69
2021/12/22 03:19:26;;;;;;;9.83;4.55;;;;;;;-4.59;86.12;100537.38;1695084;83;20969;-69
2021/12/22 03:21:59;;;;;;;7.15;4.40;;;;;;;-4.68;86.13;100535.83;1693512;83;21135;-70
2021/12/22 03:24:22;;;;;;;9.23;4.60;;;;;;;-4.77;86.14;100532.20;1683178;84;21454;-72
2021/12/22 03:26:49;;;;;;;5.87;3.80;;;;;;;-4.91;85.95;100536.06;1688306;84;21017;-72
2021/12/22 03:29:18;;;;;;;9.67;4.30;;;;;;;-4.99;86.02;100536.25;1689742;84;21059;-72
2021/12/22 03:31:46;;;;;;;11.95;5.80;;;;;;;-5.18;85.75;100533.19;1659734;84;20989;-72
2021/12/22 03:34:14;;;;;;;13.28;6.03;;;;;;;-5.31;85.60;100536.60;1685397;84;20970;-72
2021/12/22 03:36:43;;;;;;;11.35;4.72;;;;;;;-5.44;85.73;100534.08;1681798;84;21076;-72
2021/12/22 03:39:12;;;;;;;12.68;5.05;;;;;;;-5.58;85.66;100536.62;1680081;84;21001;-72
2021/12/22 03:41:40;;;;;;;16.45;7.12;;;;;;;-5.63;85.94;100536.47;1683309;84;21057;-71
2021/12/22 03:44:08;;;;;;;23.35;9.78;;;;;;;-5.69;86.01;100540.95;1684468;84;20972;-71
2021/12/22 03:46:36;;;;;;;17.90;7.03;;;;;;;-5.77;85.98;100552.98;1681148;84;20933;-72
2021/12/22 03:49:04;;;;;;;14.75;5.85;;;;;;;-5.87;85.99;100551.83;1687651;84;21007;-72
2021/12/22 03:51:31;;;;;;;13.22;5.00;;;;;;;-5.93;86.09;100549.95;1685177;84;20958;-72
2021/12/22 03:53:57;;;;;;;14.78;5.80;;;;;;;-5.99;86.10;100548.91;1686545;84;22495;-72
2021/12/22 03:56:24;;;;;;;8.57;4.67;;;;;;;-6.16;85.75;100554.70;1685930;84;21478;-72
2021/12/22 03:58:51;;;;;;;7.67;4.33;;;;;;;-6.31;85.64;100555.06;1666136;84;21517;-71
2021/12/22 04:01:18;;;;;;;6.75;3.83;;;;;;;-6.47;85.45;100557.89;1657129;85;20955;-72
2021/12/22 04:03:48;;;;;;;11.10;4.65;;;;;;;-6.64;85.36;100555.61;1663996;84;20945;-71
2021/12/22 04:06:13;;;;;;;9.80;4.42;;;;;;;-6.77;85.41;100563.63;1663709;85;22012;-71
2021/12/22 04:08:39;;;;;;;9.23;4.90;;;;;;;-6.86;85.58;100563.28;1661917;84;21612;-71
2021/12/22 04:11:06;;;;;;;7.22;4.53;;;;;;;-6.95;85.49;100566.77;1659992;85;20923;-71
2021/12/22 04:13:33;;;;;;;10.18;5.35;;;;;;;-7.14;85.24;100564.83;1662830;85;21005;-71
2021/12/22 04:15:59;;;;;;;11.57;5.57;;;;;;;-7.31;85.19;100559.50;1657879;84;20978;-72
2021/12/22 04:18:26;;;;;;;11.63;5.57;;;;;;;-7.52;85.17;100554.08;1687228;84;21490;-71
2021/12/22 04:20:52;;;;;;;10.05;4.17;;;;;;;-7.57;85.11;100565.70;1686886;84;21525;-71
2021/12/22 04:23:19;;;;;;;12.13;5.40;;;;;;;-7.65;85.38;100569.61;1689111;84;20965;-71
2021/12/22 04:25:47;;;;;;;10.03;5.87;;;;;;;-7.70;85.61;100561.84;1681746;84;21453;-71
2021/12/22 04:28:15;;;;;;;11.20;5.33;;;;;;;-7.74;85.69;100562.91;1688910;84;21509;-71
2021/12/22 04:30:47;;;;;;;8.30;4.40;;;;;;;-7.78;85.74;100567.41;1685647;84;21537;-70
2021/12/22 04:33:14;;;;;;;8.48;4.20;;;;;;;-7.75;85.92;100567.53;1690505;84;21981;-72
2021/12/22 04:35:41;;;;;;;7.47;4.22;;;;;;;-7.71;86.10;100574.44;1661131;84;21000;-71
2021/12/22 04:38:08;;;;;;;10.65;4.37;;;;;;;-7.64;86.22;100567.55;1690250;84;20981;-72
2021/12/22 04:40:35;;;;;;;11.43;4.75;;;;;;;-7.60;86.04;100565.59;1685415;84;21555;-72
2021/12/22 04:43:02;;;;;;;12.07;5.62;;;;;;;-7.57;86.09;100570.78;1681741;84;21070;-72
2021/12/22 04:45:29;;;;;;;12.43;5.22;;;;;;;-7.53;86.07;100575.19;1691839;84;21466;-72
2021/12/22 04:47:57;;;;;;;11.10;4.47;;;;;;;-7.53;85.84;100575.19;1690321;84;20961;-72
2021/12/22 04:50:23;;;;;;;7.15;4.33;;;;;;;-7.64;85.51;100571.36;1683276;83;21033;-72
2021/12/22 04:55:22;;;;;;;9.33;4.20;;;;;;;-7.87;85.24;100565.34;1688661;84;21114;-72
2021/12/22 04:57:48;;;;;;;6.35;3.50;;;;;;;-7.98;85.17;100570.39;1682173;84;21016;-72
2021/12/22 05:00:16;;;;;;;7.92;4.95;;;;;;;-8.05;85.24;100564.62;1686189;84;20993;-72
2021/12/22 05:02:43;;;;;;;9.20;4.62;;;;;;;-8.10;85.22;100566.95;1686490;84;21008;-72
2021/12/22 05:05:10;;;;;;;8.05;4.55;;;;;;;-8.19;85.14;100569.98;1681103;84;20940;-72
2021/12/22 05:07:37;;;;;;;9.83;4.58;;;;;;;-8.25;85.20;100566.34;1698744;83;22151;-72
2021/12/22 05:10:07;;;;;;;10.03;4.85;;;;;;;-8.24;85.40;100561.72;1692725;83;28098;-71
2021/12/22 05:12:33;;;;;;;6.03;3.70;;;;;;;-8.26;85.25;100567.12;1687371;84;20955;-72
2021/12/22 05:15:00;;;;;;;8.43;3.90;;;;;;;-8.23;85.48;100568.51;1689715;84;21000;-72
2021/12/22 05:17:49;;;;;;;7.53;4.28;;;;;;;-8.18;85.62;100567.89;1687501;84;20929;-72
2021/12/22 05:19:55;;;;;;;10.90;4.65;;;;;;;-8.23;85.42;100557.11;1679389;83;21449;-72
2021/12/22 05:22:22;;;;;;;8.60;3.70;;;;;;;-8.33;85.04;100563.47;1685006;83;20914;-72
2021/12/22 05:24:48;;;;;;;13.72;6.35;;;;;;;-8.37;85.35;100568.81;1689413;83;21664;-72
2021/12/22 05:27:15;;;;;;;22.75;10.23;;;;;;;-8.34;85.52;100565.14;1687891;83;20909;-72
2021/12/22 05:29:42;;;;;;;18.87;9.30;;;;;;;-8.37;85.47;100559.95;1689455;83;20918;-72
2021/12/22 05:32:08;;;;;;;42.50;18.95;;;;;;;-8.37;85.49;100565.02;1683729;83;21067;-72
2021/12/22 05:34:35;;;;;;;21.90;10.68;;;;;;;-8.37;85.56;100575.16;1690589;84;21610;-72
2021/12/22 05:37:03;;;;;;;39.90;15.90;;;;;;;-8.33;85.81;100571.93;1685833;84;20980;-72
2021/12/22 05:39:30;;;;;;;26.05;11.95;;;;;;;-8.28;85.83;100582.67;1688145;84;20871;-72
2021/12/22 05:41:57;;;;;;;24.95;12.30;;;;;;;-8.28;85.74;100573.81;1685147;84;21522;-72
2021/12/22 05:44:24;;;;;;;30.80;13.30;;;;;;;-8.30;85.60;100578.80;1688773;84;21068;-72
2021/12/22 05:46:50;;;;;;;24.10;12.95;;;;;;;-8.28;85.69;100582.67;1674391;84;20989;-72
2021/12/22 05:49:17;;;;;;;18.07;8.83;;;;;;;-8.23;85.78;100582.44;1656215;86;21024;-72
2021/12/22 05:51:44;;;;;;;16.93;7.80;;;;;;;-8.23;85.59;100583.70;1686104;84;21545;-72
2021/12/22 05:54:11;;;;;;;14.20;7.93;;;;;;;-8.23;85.54;100574.84;1689224;84;21502;-72
2021/12/22 05:56:38;;;;;;;12.65;6.78;;;;;;;-8.22;85.54;100579.13;1683364;84;21128;-72
2021/12/22 05:59:05;;;;;;;14.73;7.43;;;;;;;-8.22;85.51;100585.46;1689680;84;20987;-72
2021/12/22 06:01:32;;;;;;;12.45;6.62;;;;;;;-8.28;85.17;100581.41;1680434;84;20942;-72
2021/12/22 06:04:03;;;;;;;25.88;11.85;;;;;;;-8.29;85.40;100583.05;1683459;83;21501;-72
2021/12/22 06:06:28;;;;;;;23.15;11.83;;;;;;;-8.26;85.49;100584.84;1680347;84;20937;-72
2021/12/22 06:08:54;;;;;;;23.10;11.33;;;;;;;-8.24;85.48;100585.78;1688048;84;21065;-72
2021/12/22 06:11:25;;;;;;;18.37;9.23;;;;;;;-8.33;85.32;100579.53;1681583;84;21075;-72
2021/12/22 06:13:52;;;;;;;27.30;13.70;;;;;;;-8.33;85.33;100589.66;1683634;83;21596;-72
2021/12/22 06:16:18;;;;;;;36.13;15.87;;;;;;;-8.38;85.28;100581.00;1676278;84;21477;-72
2021/12/22 06:18:47;;;;;;;33.47;15.30;;;;;;;-8.42;85.29;100589.72;1677471;84;21505;-72
2021/12/22 06:21:14;;;;;;;27.85;14.05;;;;;;;-8.47;85.25;100598.38;1680938;84;21064;-72
2021/12/22 06:23:40;;;;;;;;;;;;;;;-8.49;85.36;100599.97;1676585;84;20988;-72
2021/12/22 06:26:07;;;;;;;30.85;13.18;;;;;;;-8.46;85.52;100602.63;1680252;84;20116;-72
2021/12/22 06:28:34;;;;;;;28.63;12.83;;;;;;;-8.42;85.62;100607.05;1681022;84;20945;-72
2021/12/22 06:31:00;;;;;;;26.93;12.63;;;;;;;-8.39;85.65;100603.78;1688873;84;21728;-72
2021/12/22 06:33:27;;;;;;;30.63;14.97;;;;;;;-8.37;85.71;100605.55;1695947;83;21155;-72
2021/12/22 06:35:53;;;;;;;36.75;16.10;;;;;;;-8.33;85.72;100615.00;1691429;84;20969;-72
2021/12/22 06:38:20;;;;;;;43.63;19.13;;;;;;;-8.30;85.72;100613.41;1692126;83;20942;-72
2021/12/22 06:40:46;;;;;;;57.33;21.50;;;;;;;-8.25;85.86;100614.47;1695528;84;21084;-72
2021/12/22 06:43:16;;;;;;;67.03;26.13;;;;;;;-8.17;85.98;100606.39;1692404;84;21025;-72
2021/12/22 06:45:43;;;;;;;96.72;31.87;;;;;;;-8.11;85.97;100608.31;1693846;84;21052;-72
2021/12/22 06:48:09;;;;;;;85.87;31.75;;;;;;;-8.05;86.01;100612.77;1692742;84;20905;-72
2021/12/22 06:50:36;;;;;;;78.50;28.62;;;;;;;-8.03;85.91;100613.30;1691297;83;20929;-72
2021/12/22 06:53:03;;;;;;;59.83;22.97;;;;;;;-8.02;85.91;100620.09;1696857;84;21110;-72
2021/12/22 06:55:29;;;;;;;81.17;29.32;;;;;;;-7.99;85.90;100625.70;1696628;83;21505;-72
2021/12/22 06:57:56;;;;;;;74.07;26.63;;;;;;;-7.99;85.88;100626.55;1665360;84;21445;-72
2021/12/22 07:00:23;;;;;;;56.98;23.52;;;;;;;-7.96;85.93;100622.88;1694049;84;20937;-72
2021/12/22 07:02:50;;;;;;;50.28;21.82;;;;;;;-7.95;85.79;100627.16;1692072;84;21509;-72
2021/12/22 07:05:19;;;;;;;57.20;22.02;;;;;;;-7.93;85.78;100626.80;1690855;83;21083;-72
2021/12/22 07:07:45;;;;;;;37.38;16.02;;;;;;;-7.90;85.72;100629.49;1692419;84;21008;-72
2021/12/22 07:10:13;;;;;;;37.05;15.28;;;;;;;-7.89;85.51;100627.41;1696030;84;21845;-72
2021/12/22 07:12:42;;;;;;;37.00;16.75;;;;;;;-7.94;85.36;100622.55;1697415;84;21616;-71
2021/12/22 07:15:11;;;;;;;154.63;30.65;;;;;;;-7.98;85.35;100618.17;1692136;83;20922;-71
2021/12/22 07:17:39;;;;;;;1999.90;267.60;;;;;;;-8.00;85.36;100622.30;1668604;83;21152;-71
2021/12/22 07:20:06;;;;;;;;;;;;;;;-7.96;85.60;100622.88;1632267;85;21045;-72
2021/12/22 07:22:34;;;;;;;70.32;21.05;;;;;;;-7.93;85.57;100619.20;1684317;83;21277;-72
2021/12/22 07:25:00;;;;;;;;;;;;;;;-7.91;85.54;100617.59;1693582;84;21458;-70
2021/12/22 07:27:27;;;;;;;40.75;19.10;;;;;;;-7.79;85.83;100626.52;1685575;82;20127;-72
2021/12/22 07:29:54;;;;;;;60.65;26.73;;;;;;;-7.75;85.73;100623.31;1687144;84;20937;-71
2021/12/22 07:32:20;;;;;;;68.77;28.00;;;;;;;-7.75;85.57;100625.85;1684773;84;20965;-71
2021/12/22 07:35:16;;;;;;;162.43;80.80;;;;;;;-7.77;85.55;100628.31;1691132;82;21909;-72
2021/12/22 07:38:03;;;;;;;97.47;35.68;;;;;;;-7.75;85.56;100630.92;1673908;84;21029;-72
2021/12/22 07:40:29;;;;;;;55.83;20.50;;;;;;;-7.68;85.78;100640.50;1673359;84;20949;-71
2021/12/22 07:42:56;;;;;;;40.85;16.60;;;;;;;-7.59;85.93;100645.93;1677003;84;20978;-71
2021/12/22 07:45:39;;;;;;;37.37;16.20;;;;;;;-7.52;85.89;100640.31;1674173;84;20937;-71
2021/12/22 07:48:03;;;;;;;42.48;17.10;;;;;;;-7.40;86.06;100636.53;1673648;84;21933;-72
2021/12/22 07:50:30;;;;;;;46.10;21.82;;;;;;;-7.32;85.98;100632.63;1674465;84;20968;-71
2021/12/22 07:52:56;;;;;;;74.92;30.40;;;;;;;-7.26;85.91;100637.94;1687543;84;21017;-71
2021/12/22 07:55:23;;;;;;;79.17;33.50;;;;;;;-7.15;85.97;100636.68;1667440;84;21001;-71
2021/12/22 07:57:51;;;;;;;85.60;36.38;;;;;;;-7.02;86.00;100643.97;1667479;85;21045;-70
2021/12/22 08:00:18;;;;;;;187.53;82.88;;;;;;;-6.88;86.00;100643.64;1654463;85;26572;-70
2021/12/22 08:02:45;;;;;;;270.48;121.20;;;;;;;-6.82;85.74;100645.12;1690118;83;21006;-70
2021/12/22 08:05:12;;;;;;;127.97;58.60;;;;;;;-6.76;85.61;100641.55;1665709;84;24851;-71
2021/12/22 08:07:39;;;;;;;99.35;45.73;;;;;;;-6.71;85.57;100645.12;1652581;84;21005;-71
2021/12/22 08:10:08;;;;;;;86.92;38.67;;;;;;;-6.66;85.62;100636.00;1681763;84;21418;-73
2021/12/22 08:12:35;;;;;;;107.03;47.10;;;;;;;-6.60;85.61;100635.36;1685205;83;21557;-71
2021/12/22 08:15:03;;;;;;;44.65;20.48;;;;;;;-6.53;85.58;100647.46;1686733;84;21095;-72
2021/12/22 08:17:32;;;;;;;33.90;15.48;;;;;;;-6.42;85.72;100656.34;1674176;84;20967;-72
2021/12/22 08:20:00;;;;;;;37.90;16.87;;;;;;;-6.28;85.98;100648.34;1650630;84;20969;-71
2021/12/22 08:22:27;;;;;;;49.70;23.35;;;;;;;-6.11;86.08;100645.98;1654909;84;21109;-72
2021/12/22 08:24:54;;;;;;;50.17;24.55;;;;;;;-6.02;86.01;100646.33;1693278;84;22047;-72
2021/12/22 08:27:22;;;;;;;37.38;15.68;;;;;;;-5.95;85.91;100647.38;1680512;84;21047;-69
2021/12/22 08:29:50;;;;;;;39.45;18.95;;;;;;;-5.88;85.93;100645.45;1685237;84;20953;-71
2021/12/22 08:32:17;;;;;;;31.15;17.48;;;;;;;-5.77;85.98;100646.72;1645954;85;20958;-71
2021/12/22 08:34:46;;;;;;;34.92;15.48;;;;;;;-5.72;85.97;100647.70;1675430;83;20993;-71
2021/12/22 08:39:59;;;;;;;22.55;12.07;;;;;;;-5.49;86.03;100640.84;1672669;85;20949;-72
2021/12/22 08:42:25;;;;;;;67.12;27.25;;;;;;;-5.33;86.31;100639.64;1652198;85;20948;-71
2021/12/22 08:44:55;;;;;;;73.33;30.97;;;;;;;-5.30;85.65;100642.69;1657188;85;21046;-70
2021/12/22 08:47:22;;;;;;;91.25;44.58;;;;;;;-5.35;85.55;100646.34;1651186;84;21047;-71
2021/12/22 08:49:49;;;;;;;67.72;36.45;;;;;;;-5.30;85.63;100642.27;1651684;84;21876;-70
2021/12/22 08:52:16;;;;;;;70.70;34.53;;;;;;;-5.23;85.61;100640.39;1627744;85;20926;-71
2021/12/22 08:54:43;;;;;;;68.75;33.73;;;;;;;-5.11;85.84;100646.27;1650907;84;21059;-71
2021/12/22 08:57:10;;;;;;;63.23;33.75;;;;;;;-4.94;86.09;100635.31;1656712;84;21575;-70
2021/12/22 08:59:36;;;;;;;62.57;33.80;;;;;;;-4.80;86.00;100634.03;1653781;85;21049;-70
2021/12/22 09:02:05;;;;;;;87.33;40.60;;;;;;;-4.73;86.02;100627.04;1650396;84;21498;-71
2021/12/22 09:04:32;;;;;;;90.70;43.00;;;;;;;-4.50;86.07;100644.67;1650697;84;21014;-70
2021/12/22 09:06:59;;;;;;;36.40;17.45;;;;;;;-4.35;85.92;100647.63;1650898;84;21025;-71
2021/12/22 09:09:26;;;;;;;32.58;12.98;;;;;;;-4.17;86.16;100638.75;1649768;84;20949;-70
2021/12/22 09:11:56;;;;;;;22.13;12.05;;;;;;;-4.01;86.17;100646.00;1654681;84;21116;-70
2021/12/22 09:14:24;;;;;;;25.20;12.55;;;;;;;-3.91;85.99;100642.88;1653303;84;21048;-68
2021/12/22 09:16:52;;;;;;;38.50;13.40;;;;;;;-3.87;85.86;100642.11;1652590;84;21636;-71
2021/12/22 09:19:19;;;;;;;33.53;12.60;;;;;;;-3.79;85.91;100645.29;1649531;84;20936;-71
2021/12/22 09:21:46;;;;;;;27.17;12.35;;;;;;;-3.68;86.00;100646.42;1656245;85;20932;-70
2021/12/22 09:24:13;;;;;;;;;;;;;;;-3.56;86.06;100640.33;1630640;85;21025;-71
2021/12/22 09:26:41;;;;;;;43.05;13.20;;;;;;;-3.50;85.90;100644.34;1654503;84;21068;-72
2021/12/22 09:29:08;;;;;;;26.37;11.80;;;;;;;-3.46;85.89;100643.58;1652290;84;21131;-72
2021/12/22 09:31:36;;;;;;;30.68;13.28;;;;;;;-3.40;85.90;100646.27;1653694;84;21018;-71
2021/12/22 09:34:03;;;;;;;26.97;12.53;;;;;;;-3.34;85.93;100648.52;1678014;84;21557;-71
2021/12/22 09:36:30;;;;;;;21.07;11.97;;;;;;;-3.29;85.96;100649.50;1679083;83;20986;-71
2021/12/22 09:38:56;;;;;;;20.67;11.57;;;;;;;-3.26;85.91;100644.46;1675437;83;21850;-71
2021/12/22 09:41:23;;;;;;;20.50;11.43;;;;;;;-3.20;86.01;100647.16;1673746;85;21456;-71
2021/12/22 09:43:56;;;;;;;22.53;13.07;;;;;;;-3.15;85.79;100645.58;1673527;84;20941;-71
2021/12/22 09:46:21;;;;;;;27.95;13.55;;;;;;;-3.20;85.38;100632.69;1673346;83;20926;-71
2021/12/22 09:48:58;;;;;;;33.55;15.58;;;;;;;-3.22;85.30;100634.75;1676737;85;20985;-72
2021/12/22 09:53:52;;;;;;;43.20;16.48;;;;;;;-3.15;85.71;100635.36;1672474;85;21543;-71
2021/12/22 09:56:23;;;;;;;27.27;15.28;;;;;;;-3.03;85.74;100633.06;1677014;84;20905;-71
2021/12/22 09:58:51;;;;;;;54.83;14.05;;;;;;;-2.97;85.63;100643.84;1656491;85;21032;-71
2021/12/22 10:01:23;;;;;;;29.70;13.45;;;;;;;-2.93;85.71;100637.56;1655803;85;21049;-69
2021/12/22 10:03:49;;;;;;;23.80;12.33;;;;;;;-2.87;85.67;100643.64;1677237;83;21028;-68
2021/12/22 10:06:16;;;;;;;21.35;11.40;;;;;;;-2.78;85.76;100633.61;1679792;83;20927;-68
2021/12/22 10:09:03;;;;;;;21.30;11.90;;;;;;;-2.89;85.47;100632.09;1705379;83;26486;-68
2021/12/22 10:11:33;;;;;;;26.35;13.85;;;;;;;-2.90;85.57;100625.69;1683942;83;20948;-68
2021/12/22 10:14:00;;;;;;;62.83;36.40;;;;;;;-2.96;85.34;100620.89;1680455;83;20960;-68
2021/12/22 10:16:29;;;;;;;49.30;27.95;;;;;;;-3.13;84.94;100623.48;1682255;83;21119;-68
2021/12/22 10:19:09;;;;;;;46.25;23.00;;;;;;;-3.28;84.97;100620.15;1679352;84;37644;-69
2021/12/22 10:21:53;;;;;;;48.78;25.68;;;;;;;-3.35;85.00;100619.99;1679347;85;21511;-68
2021/12/22 10:24:23;;;;;;;46.42;24.10;;;;;;;-3.40;85.16;100618.18;1676185;83;21573;-68
2021/12/22 10:26:55;;;;;;;54.58;23.20;;;;;;;-3.35;85.36;100617.44;1676250;83;21524;-68
2021/12/22 10:29:27;;;;;;;40.17;19.48;;;;;;;-3.30;85.44;100617.14;1623193;86;21084;-69
2021/12/22 10:31:59;;;;;;;38.25;20.85;;;;;;;-3.31;85.31;100609.01;1681548;84;21122;-69
2021/12/22 10:34:26;;;;;;;48.15;22.73;;;;;;;-3.46;84.91;100612.94;1669666;83;20945;-69
2021/12/22 10:36:59;;;;;;;50.25;28.62;;;;;;;-3.62;84.98;100612.11;1676783;84;21497;-70
2021/12/22 10:39:29;;;;;;;52.78;26.97;;;;;;;-3.67;84.84;100608.58;1676242;84;21052;-70
2021/12/22 10:42:09;;;;;;;46.00;25.60;;;;;;;-3.70;84.82;100608.50;1674769;83;21839;-71
2021/12/22 10:44:44;;;;;;;57.67;29.37;;;;;;;-3.71;85.04;100599.13;1677699;84;21572;-70
2021/12/22 10:47:34;;;;;;;70.60;36.70;;;;;;;-3.65;85.09;100596.72;1661633;84;20950;-71
2021/12/22 10:50:05;;;;;;;60.98;35.55;;;;;;;-3.67;84.86;100595.81;1666790;84;21551;-71
2021/12/22 10:52:33;;;;;;;66.60;33.92;;;;;;;-3.66;84.87;100600.11;1693811;84;21563;-72
2021/12/22 10:55:12;;;;;;;54.63;30.65;;;;;;;-3.66;84.87;100592.45;1680256;84;21856;-72
2021/12/22 10:57:42;;;;;;;104.80;56.18;;;;;;;-3.58;85.23;100592.23;1656716;84;21433;-71
2021/12/22 11:00:23;;;;;;;54.48;28.95;;;;;;;-3.40;85.56;100583.70;1639569;85;21593;-71
2021/12/22 11:03:08;;;;;;;44.45;22.52;;;;;;;-3.24;85.61;100591.73;1658924;84;21640;-72
2021/12/22 11:05:51;;;;;;;31.37;17.48;;;;;;;-3.22;85.57;100584.56;1681827;83;20985;-71
2021/12/22 11:08:23;;;;;;;31.25;11.60;;;;;;;-3.11;85.58;100583.48;1660020;85;21915;-72
2021/12/22 11:10:52;;;;;;;19.98;10.30;;;;;;;-3.05;85.59;100583.65;1661418;83;20962;-71
2021/12/22 11:13:22;;;;;;;18.23;9.83;;;;;;;-3.00;85.61;100582.03;1686590;83;21057;-71
2021/12/22 11:15:51;;;;;;;17.10;9.93;;;;;;;-3.00;85.45;100578.61;1686366;83;20910;-71
2021/12/22 11:18:36;;;;;;;21.02;10.55;;;;;;;-2.97;85.66;100582.13;1668141;84;20990;-71
2021/12/22 11:21:30;;;;;;;19.57;9.80;;;;;;;-2.86;85.69;100584.02;1640567;84;21262;-72
2021/12/22 11:23:47;;;;;;;19.87;9.15;;;;;;;-2.79;85.64;100576.52;1688603;83;21521;-72
2021/12/22 11:26:14;;;;;;;21.25;10.18;;;;;;;-2.83;85.35;100578.97;1688365;84;20942;-70
2021/12/22 11:28:42;;;;;;;16.05;9.70;;;;;;;-2.86;85.40;100576.35;1683654;84;20936;-71
2021/12/22 11:31:11;;;;;;;34.63;9.40;;;;;;;-2.76;85.57;100584.67;1683218;83;20969;-71
2021/12/22 11:33:41;;;;;;;48.58;12.80;;;;;;;-2.76;85.40;100580.84;1660920;85;21145;-71
2021/12/22 11:36:10;;;;;;;73.10;11.48;;;;;;;-2.74;85.54;100590.27;1666720;84;20977;-70
2021/12/22 11:38:38;;;;;;;59.83;11.75;;;;;;;-2.67;85.48;100575.90;1687075;83;21554;-71
2021/12/22 11:41:12;;;;;;;15.90;9.00;;;;;;;-2.58;85.55;100574.80;1666878;84;20985;-70